CST,Max TemperatureF,Mean TemperatureF,Min TemperatureF,Max Dew PointF,MeanDew PointF,Min DewpointF,Max Humidity, Mean Humidity, Min Humidity, Max Sea Level PressureIn, Mean Sea Level PressureIn, Min Sea Level PressureIn, Max VisibilityMiles, Mean VisibilityMiles, Min VisibilityMiles, Max Wind SpeedMPH, Mean Wind SpeedMPH, Max Gust SpeedMPH,PrecipitationIn, CloudCover, Events, WindDirDegrees
2012-12-1,32,26,21,32,25,21,100,100,100,29.83,29.74,29.61,9,2,0,23,12,26,0.00,8,Fog,345
2012-12-2,32,28,23,32,29,23,100,100,100,29.82,29.59,29.30,10,2,0,18,9,26,0.00,6,Fog-Rain,170
2012-12-3,39,22,6,39,20,1,100,85,68,29.92,29.55,29.28,10,10,4,37,17,51,0.00,3,Rain-Snow,278
2012-12-4,10,6,1,7,3,0,100,85,78,30.26,30.18,29.93,10,10,10,23,14,30,0.00,2,,309
2012-12-5,32,20,8,32,20,9,100,95,86,30.18,29.78,29.52,10,10,10,24,16,33,0.00,3,,195
2012-12-6,24,15,6,23,15,3,100,89,80,29.97,29.89,29.81,10,10,10,21,14,31,0.00,2,,293
2012-12-7,6,2,-2,3,-1,-4,100,90,85,30.07,30.02,29.97,10,10,8,16,9,,0.00,2,Rain-Snow,5
2012-12-8,5,0,-7,1,-1,-11,100,90,78,30.20,29.99,29.91,10,6,0,21,12,24,5.17,5,Rain-Snow,36
2012-12-9,1,-3,-7,0,-6,-11,92,86,78,30.36,30.24,30.01,10,9,3,18,12,18,0.00,4,Rain-Snow,305
2012-12-10,8,0,-7,9,0,-11,100,89,78,29.99,29.70,29.60,10,10,2,17,11,20,0.00,2,,232
2012-12-11,3,-3,-9,0,-6,-13,100,86,71,29.80,29.75,29.67,10,8,1,21,11,23,0.05,5,Snow,37
2012-12-12,3,0,-2,1,-3,-4,92,89,85,29.68,29.66,29.64,10,7,1,17,13,22,0.37,8,Snow,41
2012-12-13,23,12,0,23,4,-4,100,92,78,,,,,,,15,8,,0.00,8,,201
2012-12-14,23,18,12,23,18,12,100,100,100,,,,,,,40,15,63,0.00,8,,201
2012-12-15,23,13,3,23,14,1,100,98,85,29.78,29.74,29.70,3,2,0,25,13,40,0.06,8,Fog-Rain-Snow,317
2012-12-16,17,14,12,18,15,12,100,100,100,29.82,29.79,29.77,7,1,0,14,7,,0.00,8,Fog-Snow,239
2012-12-17,19,16,12,19,16,12,100,100,100,29.76,29.62,29.55,10,4,0,18,10,22,0.00,8,Fog-Snow,185
2012-12-18,21,18,15,21,18,16,100,100,100,29.62,29.57,29.54,10,2,0,15,8,24,0.14,8,Fog-Snow,141
2012-12-19,19,10,0,19,12,-2,100,98,85,30.05,29.84,29.62,10,8,1,15,9,,0.17,7,Rain-Snow,347
2012-12-20,5,-6,-16,1,-8,-20,100,86,77,30.15,30.10,30.05,10,9,0,9,4,,0.00,3,Fog,302
2012-12-21,14,0,-13,14,0,-18,100,91,77,30.16,30.05,29.94,10,10,0,16,9,20,0.00,1,Snow,196
2012-12-22,17,6,-4,18,3,-9,100,92,78,30.20,30.11,29.96,10,8,2,30,20,37,0.20,4,Rain-Snow,349
2012-12-23,0,-2,-5,-4,-6,-9,92,85,78,30.20,30.16,30.14,10,9,1,15,12,,0.03,6,Rain-Snow,6
2012-12-24,1,-5,-11,0,-8,-17,92,84,77,30.31,30.23,30.15,10,10,10,14,10,,0.00,3,,335
2012-12-25,-2,-12,-22,-4,-17,-27,92,79,69,30.38,30.34,30.28,10,10,4,13,6,,0.00,2,Snow,278
2012-12-26,3,-8,-18,1,-10,-24,92,84,76,30.28,30.20,30.14,10,10,4,8,3,,0.04,4,Snow,181
2012-12-27,8,4,0,7,5,-2,100,93,85,30.15,30.09,30.03,10,9,2,12,7,,0.02,7,Snow,163
2012-12-28,10,-2,-13,9,2,-17,100,92,78,30.03,29.96,29.91,10,10,1,12,8,,0.03,5,Snow,227
2012-12-29,14,-1,-14,14,-3,-20,100,89,77,30.00,29.94,29.88,10,10,10,20,9,16,0.00,4,Snow,244
2012-12-30,21,10,-2,19,11,-6,100,92,78,30.10,29.92,29.84,10,9,2,25,12,30,0.48,7,Rain-Snow,305
2012-12-31,0,-10,-20,-2,-13,-26,92,82,71,30.16,30.12,30.07,10,10,1,16,6,,0.00,1,,228